sensor_id;sensor_type;location;lat;lon;timestamp;P1;durP1;ratioP1;P2;durP2;ratioP2
72335;SDS011;73817;48.446;8.834;2023-12-04T00:04:59;11.17;;;4.20;;
72335;SDS011;73817;48.446;8.834;2023-12-04T00:07:59;9.10;;;4.78;;
72335;SDS011;73817;48.446;8.834;2023-12-04T00:11:00;10.48;;;6.00;;
72335;SDS011;73817;48.446;8.834;2023-12-04T00:14:00;11.65;;;4.35;;
72335;SDS011;73817;48.446;8.834;2023-12-04T00:17:00;14.20;;;5.93;;
72335;SDS011;73817;48.446;8.834;2023-12-04T00:20:01;6.78;;;2.50;;
72335;SDS011;73817;48.446;8.834;2023-12-04T00:23:01;7.80;;;2.83;;
72335;SDS011;73817;48.446;8.834;2023-12-04T00:26:02;9.27;;;4.07;;
72335;SDS011;73817;48.446;8.834;2023-12-04T00:29:02;11.48;;;4.10;;
72335;SDS011;73817;48.446;8.834;2023-12-04T00:32:03;7.90;;;3.22;;
72335;SDS011;73817;48.446;8.834;2023-12-04T00:35:03;9.25;;;3.28;;
72335;SDS011;73817;48.446;8.834;2023-12-04T00:38:04;12.20;;;6.20;;
72335;SDS011;73817;48.446;8.834;2023-12-04T00:41:05;3.75;;;2.10;;
72335;SDS011;73817;48.446;8.834;2023-12-04T00:44:05;11.68;;;5.60;;
72335;SDS011;73817;48.446;8.834;2023-12-04T00:47:05;9.00;;;4.25;;
72335;SDS011;73817;48.446;8.834;2023-12-04T00:50:06;11.35;;;5.25;;
72335;SDS011;73817;48.446;8.834;2023-12-04T00:53:07;6.95;;;3.00;;
72335;SDS011;73817;48.446;8.834;2023-12-04T00:56:07;9.18;;;5.20;;
72335;SDS011;73817;48.446;8.834;2023-12-04T00:59:08;10.27;;;3.95;;
72335;SDS011;73817;48.446;8.834;2023-12-04T01:02:09;7.50;;;3.70;;
72335;SDS011;73817;48.446;8.834;2023-12-04T01:05:09;7.75;;;3.72;;
72335;SDS011;73817;48.446;8.834;2023-12-04T01:08:10;9.07;;;3.75;;
72335;SDS011;73817;48.446;8.834;2023-12-04T01:11:10;12.20;;;5.25;;
72335;SDS011;73817;48.446;8.834;2023-12-04T01:14:11;8.80;;;3.72;;
72335;SDS011;73817;48.446;8.834;2023-12-04T01:17:11;11.00;;;4.00;;
72335;SDS011;73817;48.446;8.834;2023-12-04T01:20:11;8.93;;;4.18;;
72335;SDS011;73817;48.446;8.834;2023-12-04T01:23:12;9.40;;;4.18;;
72335;SDS011;73817;48.446;8.834;2023-12-04T01:26:12;9.48;;;4.35;;
72335;SDS011;73817;48.446;8.834;2023-12-04T01:29:12;12.63;;;5.65;;
72335;SDS011;73817;48.446;8.834;2023-12-04T01:32:13;8.43;;;4.32;;
72335;SDS011;73817;48.446;8.834;2023-12-04T01:35:13;8.90;;;4.30;;
72335;SDS011;73817;48.446;8.834;2023-12-04T01:38:14;7.63;;;4.82;;
72335;SDS011;73817;48.446;8.834;2023-12-04T01:41:14;7.95;;;4.38;;
72335;SDS011;73817;48.446;8.834;2023-12-04T01:44:14;9.23;;;4.22;;
72335;SDS011;73817;48.446;8.834;2023-12-04T01:47:15;9.27;;;3.90;;
72335;SDS011;73817;48.446;8.834;2023-12-04T01:50:15;8.23;;;4.68;;
72335;SDS011;73817;48.446;8.834;2023-12-04T01:53:16;8.35;;;5.22;;
72335;SDS011;73817;48.446;8.834;2023-12-04T01:56:16;6.93;;;3.40;;
72335;SDS011;73817;48.446;8.834;2023-12-04T01:59:17;8.88;;;5.03;;
72335;SDS011;73817;48.446;8.834;2023-12-04T02:02:19;7.28;;;4.30;;
72335;SDS011;73817;48.446;8.834;2023-12-04T02:05:20;6.35;;;4.00;;
72335;SDS011;73817;48.446;8.834;2023-12-04T02:08:22;7.65;;;3.45;;
72335;SDS011;73817;48.446;8.834;2023-12-04T02:11:22;11.82;;;5.10;;
72335;SDS011;73817;48.446;8.834;2023-12-04T02:14:23;9.65;;;4.43;;
72335;SDS011;73817;48.446;8.834;2023-12-04T02:17:23;10.45;;;4.43;;
72335;SDS011;73817;48.446;8.834;2023-12-04T02:20:32;8.25;;;4.13;;
72335;SDS011;73817;48.446;8.834;2023-12-04T02:23:33;7.13;;;2.67;;
72335;SDS011;73817;48.446;8.834;2023-12-04T02:26:39;8.15;;;3.63;;
72335;SDS011;73817;48.446;8.834;2023-12-04T02:29:51;6.85;;;2.88;;
72335;SDS011;73817;48.446;8.834;2023-12-04T02:32:53;7.47;;;3.53;;
72335;SDS011;73817;48.446;8.834;2023-12-04T02:35:54;8.50;;;4.13;;
72335;SDS011;73817;48.446;8.834;2023-12-04T02:38:56;8.48;;;4.95;;
72335;SDS011;73817;48.446;8.834;2023-12-04T02:41:57;9.57;;;4.85;;
72335;SDS011;73817;48.446;8.834;2023-12-04T02:44:57;9.07;;;4.30;;
72335;SDS011;73817;48.446;8.834;2023-12-04T02:47:58;8.75;;;3.67;;
72335;SDS011;73817;48.446;8.834;2023-12-04T02:50:58;5.60;;;3.08;;
72335;SDS011;73817;48.446;8.834;2023-12-04T02:53:59;6.90;;;3.00;;
72335;SDS011;73817;48.446;8.834;2023-12-04T02:56:59;8.60;;;4.28;;
72335;SDS011;73817;48.446;8.834;2023-12-04T02:59:59;7.97;;;3.88;;
72335;SDS011;73817;48.446;8.834;2023-12-04T03:03:00;7.72;;;3.53;;
72335;SDS011;73817;48.446;8.834;2023-12-04T03:06:00;9.30;;;3.30;;
72335;SDS011;73817;48.446;8.834;2023-12-04T03:09:00;5.70;;;3.65;;
72335;SDS011;73817;48.446;8.834;2023-12-04T03:12:01;9.68;;;3.60;;
72335;SDS011;73817;48.446;8.834;2023-12-04T03:15:01;7.35;;;3.72;;
72335;SDS011;73817;48.446;8.834;2023-12-04T03:18:02;10.90;;;5.68;;
72335;SDS011;73817;48.446;8.834;2023-12-04T03:21:03;8.80;;;5.30;;
72335;SDS011;73817;48.446;8.834;2023-12-04T03:24:04;9.02;;;3.65;;
72335;SDS011;73817;48.446;8.834;2023-12-04T03:27:04;9.95;;;5.43;;
72335;SDS011;73817;48.446;8.834;2023-12-04T03:30:05;10.45;;;4.85;;
72335;SDS011;73817;48.446;8.834;2023-12-04T03:33:06;6.20;;;3.60;;
72335;SDS011;73817;48.446;8.834;2023-12-04T03:36:06;7.68;;;3.40;;
72335;SDS011;73817;48.446;8.834;2023-12-04T03:39:07;13.38;;;4.68;;
72335;SDS011;73817;48.446;8.834;2023-12-04T03:42:07;11.05;;;4.85;;
72335;SDS011;73817;48.446;8.834;2023-12-04T03:45:08;7.05;;;3.70;;
72335;SDS011;73817;48.446;8.834;2023-12-04T03:48:09;10.88;;;4.60;;
72335;SDS011;73817;48.446;8.834;2023-12-04T03:51:09;7.20;;;3.47;;
72335;SDS011;73817;48.446;8.834;2023-12-04T03:54:09;10.77;;;3.45;;
72335;SDS011;73817;48.446;8.834;2023-12-04T03:57:10;6.28;;;3.42;;
72335;SDS011;73817;48.446;8.834;2023-12-04T04:00:10;12.13;;;4.70;;
72335;SDS011;73817;48.446;8.834;2023-12-04T04:03:11;9.25;;;4.18;;
72335;SDS011;73817;48.446;8.834;2023-12-04T04:06:11;7.43;;;3.88;;
72335;SDS011;73817;48.446;8.834;2023-12-04T04:09:12;7.82;;;3.78;;
72335;SDS011;73817;48.446;8.834;2023-12-04T04:12:12;7.63;;;4.50;;
72335;SDS011;73817;48.446;8.834;2023-12-04T04:15:12;10.60;;;4.05;;
72335;SDS011;73817;48.446;8.834;2023-12-04T04:18:13;10.70;;;4.18;;
72335;SDS011;73817;48.446;8.834;2023-12-04T04:21:14;8.88;;;4.20;;
72335;SDS011;73817;48.446;8.834;2023-12-04T04:24:14;7.10;;;3.20;;
72335;SDS011;73817;48.446;8.834;2023-12-04T04:27:14;8.10;;;4.25;;
72335;SDS011;73817;48.446;8.834;2023-12-04T04:30:15;7.03;;;3.38;;
72335;SDS011;73817;48.446;8.834;2023-12-04T04:33:16;9.90;;;4.22;;
72335;SDS011;73817;48.446;8.834;2023-12-04T04:36:17;8.30;;;3.83;;
72335;SDS011;73817;48.446;8.834;2023-12-04T04:39:17;7.15;;;3.60;;
72335;SDS011;73817;48.446;8.834;2023-12-04T04:42:18;8.48;;;3.20;;
72335;SDS011;73817;48.446;8.834;2023-12-04T04:45:18;9.05;;;5.18;;
72335;SDS011;73817;48.446;8.834;2023-12-04T04:48:19;13.68;;;4.82;;
72335;SDS011;73817;48.446;8.834;2023-12-04T04:51:19;8.32;;;4.55;;
72335;SDS011;73817;48.446;8.834;2023-12-04T04:54:20;9.82;;;3.92;;
72335;SDS011;73817;48.446;8.834;2023-12-04T04:57:20;8.68;;;4.10;;
72335;SDS011;73817;48.446;8.834;2023-12-04T05:00:21;6.88;;;3.17;;
72335;SDS011;73817;48.446;8.834;2023-12-04T05:03:21;10.02;;;4.47;;
72335;SDS011;73817;48.446;8.834;2023-12-04T05:06:21;12.18;;;5.70;;
72335;SDS011;73817;48.446;8.834;2023-12-04T05:09:22;7.80;;;5.38;;
72335;SDS011;73817;48.446;8.834;2023-12-04T05:12:22;11.93;;;5.88;;
72335;SDS011;73817;48.446;8.834;2023-12-04T05:15:23;10.50;;;5.85;;
72335;SDS011;73817;48.446;8.834;2023-12-04T05:18:23;8.43;;;4.70;;
72335;SDS011;73817;48.446;8.834;2023-12-04T05:21:24;8.95;;;5.50;;
72335;SDS011;73817;48.446;8.834;2023-12-04T05:24:24;12.05;;;5.90;;
72335;SDS011;73817;48.446;8.834;2023-12-04T05:27:24;10.23;;;5.75;;
72335;SDS011;73817;48.446;8.834;2023-12-04T05:30:25;10.55;;;4.45;;
72335;SDS011;73817;48.446;8.834;2023-12-04T05:33:25;11.20;;;5.40;;
72335;SDS011;73817;48.446;8.834;2023-12-04T05:36:26;8.75;;;4.35;;
72335;SDS011;73817;48.446;8.834;2023-12-04T05:39:27;8.75;;;4.15;;
72335;SDS011;73817;48.446;8.834;2023-12-04T05:42:27;7.05;;;3.90;;
72335;SDS011;73817;48.446;8.834;2023-12-04T05:45:28;9.00;;;4.07;;
72335;SDS011;73817;48.446;8.834;2023-12-04T05:48:28;10.07;;;3.70;;
72335;SDS011;73817;48.446;8.834;2023-12-04T05:51:28;6.78;;;3.92;;
72335;SDS011;73817;48.446;8.834;2023-12-04T05:54:29;8.07;;;4.10;;
72335;SDS011;73817;48.446;8.834;2023-12-04T05:57:30;7.10;;;3.08;;
72335;SDS011;73817;48.446;8.834;2023-12-04T06:00:30;7.72;;;4.20;;
72335;SDS011;73817;48.446;8.834;2023-12-04T06:03:31;11.65;;;5.50;;
72335;SDS011;73817;48.446;8.834;2023-12-04T06:06:31;13.68;;;6.07;;
72335;SDS011;73817;48.446;8.834;2023-12-04T06:09:31;11.93;;;4.85;;
72335;SDS011;73817;48.446;8.834;2023-12-04T06:12:32;8.95;;;4.38;;
72335;SDS011;73817;48.446;8.834;2023-12-04T06:15:32;7.22;;;3.38;;
72335;SDS011;73817;48.446;8.834;2023-12-04T06:18:33;13.93;;;4.82;;
72335;SDS011;73817;48.446;8.834;2023-12-04T06:21:33;8.70;;;4.72;;
72335;SDS011;73817;48.446;8.834;2023-12-04T06:24:33;10.50;;;4.63;;
72335;SDS011;73817;48.446;8.834;2023-12-04T06:27:34;11.20;;;4.85;;
72335;SDS011;73817;48.446;8.834;2023-12-04T06:30:35;12.35;;;5.00;;
72335;SDS011;73817;48.446;8.834;2023-12-04T06:33:36;8.88;;;4.20;;
72335;SDS011;73817;48.446;8.834;2023-12-04T06:36:37;10.35;;;4.53;;
72335;SDS011;73817;48.446;8.834;2023-12-04T06:39:39;12.15;;;5.40;;
72335;SDS011;73817;48.446;8.834;2023-12-04T06:42:40;14.43;;;5.30;;
72335;SDS011;73817;48.446;8.834;2023-12-04T06:45:40;12.77;;;5.35;;
72335;SDS011;73817;48.446;8.834;2023-12-04T06:48:41;7.05;;;3.88;;
72335;SDS011;73817;48.446;8.834;2023-12-04T06:51:43;9.38;;;5.00;;
72335;SDS011;73817;48.446;8.834;2023-12-04T06:54:44;9.95;;;4.00;;
72335;SDS011;73817;48.446;8.834;2023-12-04T06:57:44;7.95;;;3.53;;
72335;SDS011;73817;48.446;8.834;2023-12-04T07:00:44;9.68;;;4.15;;
72335;SDS011;73817;48.446;8.834;2023-12-04T07:03:45;7.63;;;4.10;;
72335;SDS011;73817;48.446;8.834;2023-12-04T07:06:45;9.93;;;4.78;;
72335;SDS011;73817;48.446;8.834;2023-12-04T07:09:45;12.30;;;4.82;;
72335;SDS011;73817;48.446;8.834;2023-12-04T07:12:46;9.88;;;4.35;;
72335;SDS011;73817;48.446;8.834;2023-12-04T07:15:46;8.57;;;3.60;;
72335;SDS011;73817;48.446;8.834;2023-12-04T07:18:47;11.02;;;4.88;;
72335;SDS011;73817;48.446;8.834;2023-12-04T07:21:47;7.82;;;3.95;;
72335;SDS011;73817;48.446;8.834;2023-12-04T07:24:48;11.20;;;4.82;;
72335;SDS011;73817;48.446;8.834;2023-12-04T07:27:48;14.02;;;6.47;;
72335;SDS011;73817;48.446;8.834;2023-12-04T07:30:49;9.98;;;5.40;;
72335;SDS011;73817;48.446;8.834;2023-12-04T07:33:49;13.20;;;4.57;;
72335;SDS011;73817;48.446;8.834;2023-12-04T07:36:49;12.50;;;5.70;;
72335;SDS011;73817;48.446;8.834;2023-12-04T07:39:50;11.27;;;5.78;;
72335;SDS011;73817;48.446;8.834;2023-12-04T07:42:51;12.25;;;5.57;;
72335;SDS011;73817;48.446;8.834;2023-12-04T07:45:51;11.40;;;6.10;;
72335;SDS011;73817;48.446;8.834;2023-12-04T07:48:51;13.38;;;6.50;;
72335;SDS011;73817;48.446;8.834;2023-12-04T07:51:52;11.02;;;6.10;;
72335;SDS011;73817;48.446;8.834;2023-12-04T07:54:52;12.10;;;4.97;;
72335;SDS011;73817;48.446;8.834;2023-12-04T07:57:53;12.32;;;5.40;;
72335;SDS011;73817;48.446;8.834;2023-12-04T08:00:53;13.52;;;6.38;;
72335;SDS011;73817;48.446;8.834;2023-12-04T08:03:53;10.25;;;5.60;;
72335;SDS011;73817;48.446;8.834;2023-12-04T08:06:54;45.67;;;13.85;;
72335;SDS011;73817;48.446;8.834;2023-12-04T08:09:54;11.27;;;5.95;;
72335;SDS011;73817;48.446;8.834;2023-12-04T08:12:55;11.15;;;5.85;;
72335;SDS011;73817;48.446;8.834;2023-12-04T08:15:56;6.93;;;3.97;;
72335;SDS011;73817;48.446;8.834;2023-12-04T08:18:56;11.93;;;6.60;;
72335;SDS011;73817;48.446;8.834;2023-12-04T08:21:57;12.13;;;5.65;;
72335;SDS011;73817;48.446;8.834;2023-12-04T08:24:58;9.55;;;4.90;;
72335;SDS011;73817;48.446;8.834;2023-12-04T08:27:58;12.27;;;5.15;;
72335;SDS011;73817;48.446;8.834;2023-12-04T08:31:00;15.45;;;6.20;;
72335;SDS011;73817;48.446;8.834;2023-12-04T08:34:00;9.50;;;4.85;;
72335;SDS011;73817;48.446;8.834;2023-12-04T08:37:00;10.52;;;5.05;;
72335;SDS011;73817;48.446;8.834;2023-12-04T08:40:01;14.23;;;6.32;;
72335;SDS011;73817;48.446;8.834;2023-12-04T08:43:03;12.93;;;6.22;;
72335;SDS011;73817;48.446;8.834;2023-12-04T08:46:03;12.18;;;5.80;;
72335;SDS011;73817;48.446;8.834;2023-12-04T08:49:04;14.50;;;7.03;;
72335;SDS011;73817;48.446;8.834;2023-12-04T08:52:04;14.48;;;8.05;;
72335;SDS011;73817;48.446;8.834;2023-12-04T08:55:05;9.18;;;5.00;;
72335;SDS011;73817;48.446;8.834;2023-12-04T08:58:07;8.50;;;4.70;;
72335;SDS011;73817;48.446;8.834;2023-12-04T09:01:07;10.45;;;4.95;;
72335;SDS011;73817;48.446;8.834;2023-12-04T09:04:08;15.57;;;6.60;;
72335;SDS011;73817;48.446;8.834;2023-12-04T09:07:09;15.93;;;7.32;;
72335;SDS011;73817;48.446;8.834;2023-12-04T09:10:09;13.38;;;6.38;;
72335;SDS011;73817;48.446;8.834;2023-12-04T09:13:10;11.60;;;5.82;;
72335;SDS011;73817;48.446;8.834;2023-12-04T09:16:10;11.02;;;6.15;;
72335;SDS011;73817;48.446;8.834;2023-12-04T09:19:10;7.70;;;4.65;;
72335;SDS011;73817;48.446;8.834;2023-12-04T09:22:11;11.13;;;5.35;;
72335;SDS011;73817;48.446;8.834;2023-12-04T09:25:11;11.05;;;4.78;;
72335;SDS011;73817;48.446;8.834;2023-12-04T09:28:12;14.77;;;7.15;;
72335;SDS011;73817;48.446;8.834;2023-12-04T09:31:12;14.07;;;7.05;;
72335;SDS011;73817;48.446;8.834;2023-12-04T09:34:13;13.82;;;5.95;;
72335;SDS011;73817;48.446;8.834;2023-12-04T09:37:13;16.73;;;8.85;;
72335;SDS011;73817;48.446;8.834;2023-12-04T09:40:14;13.27;;;7.20;;
72335;SDS011;73817;48.446;8.834;2023-12-04T09:43:15;17.52;;;7.85;;
72335;SDS011;73817;48.446;8.834;2023-12-04T09:46:16;11.30;;;5.90;;
72335;SDS011;73817;48.446;8.834;2023-12-04T09:49:17;12.95;;;6.70;;
72335;SDS011;73817;48.446;8.834;2023-12-04T09:52:19;8.85;;;4.03;;
72335;SDS011;73817;48.446;8.834;2023-12-04T09:55:20;10.77;;;5.32;;
72335;SDS011;73817;48.446;8.834;2023-12-04T09:58:20;11.02;;;5.68;;
72335;SDS011;73817;48.446;8.834;2023-12-04T10:01:22;9.30;;;5.07;;
72335;SDS011;73817;48.446;8.834;2023-12-04T10:04:23;14.85;;;7.28;;
72335;SDS011;73817;48.446;8.834;2023-12-04T10:07:25;13.13;;;6.63;;
72335;SDS011;73817;48.446;8.834;2023-12-04T10:10:25;12.70;;;6.28;;
72335;SDS011;73817;48.446;8.834;2023-12-04T10:13:26;9.07;;;4.80;;
72335;SDS011;73817;48.446;8.834;2023-12-04T10:16:34;9.77;;;5.32;;
72335;SDS011;73817;48.446;8.834;2023-12-04T10:19:36;12.52;;;7.00;;
72335;SDS011;73817;48.446;8.834;2023-12-04T10:22:39;12.82;;;6.93;;
72335;SDS011;73817;48.446;8.834;2023-12-04T10:25:51;14.18;;;7.00;;
72335;SDS011;73817;48.446;8.834;2023-12-04T10:29:01;11.45;;;6.32;;
72335;SDS011;73817;48.446;8.834;2023-12-04T10:32:03;14.43;;;7.07;;
72335;SDS011;73817;48.446;8.834;2023-12-04T10:35:05;10.20;;;5.45;;
72335;SDS011;73817;48.446;8.834;2023-12-04T10:38:09;11.52;;;6.03;;
72335;SDS011;73817;48.446;8.834;2023-12-04T10:41:12;11.40;;;5.55;;
72335;SDS011;73817;48.446;8.834;2023-12-04T10:44:16;8.90;;;4.47;;
72335;SDS011;73817;48.446;8.834;2023-12-04T10:47:19;11.48;;;5.30;;
72335;SDS011;73817;48.446;8.834;2023-12-04T10:50:21;12.10;;;5.28;;
72335;SDS011;73817;48.446;8.834;2023-12-04T10:53:23;14.73;;;8.65;;
72335;SDS011;73817;48.446;8.834;2023-12-04T10:56:30;14.85;;;7.18;;
72335;SDS011;73817;48.446;8.834;2023-12-04T10:59:36;10.25;;;6.03;;
72335;SDS011;73817;48.446;8.834;2023-12-04T11:02:39;12.73;;;7.25;;
72335;SDS011;73817;48.446;8.834;2023-12-04T11:05:47;12.63;;;7.47;;
72335;SDS011;73817;48.446;8.834;2023-12-04T11:08:51;12.43;;;6.22;;
72335;SDS011;73817;48.446;8.834;2023-12-04T11:11:59;12.52;;;6.65;;
72335;SDS011;73817;48.446;8.834;2023-12-04T11:15:03;12.98;;;5.43;;
72335;SDS011;73817;48.446;8.834;2023-12-04T11:18:05;15.90;;;7.32;;
72335;SDS011;73817;48.446;8.834;2023-12-04T11:21:08;13.93;;;6.95;;
72335;SDS011;73817;48.446;8.834;2023-12-04T11:24:11;14.23;;;7.18;;
72335;SDS011;73817;48.446;8.834;2023-12-04T11:27:12;10.80;;;5.30;;
72335;SDS011;73817;48.446;8.834;2023-12-04T11:30:14;11.90;;;6.45;;
72335;SDS011;73817;48.446;8.834;2023-12-04T11:33:17;11.90;;;6.47;;
72335;SDS011;73817;48.446;8.834;2023-12-04T11:39:18;13.63;;;6.20;;
72335;SDS011;73817;48.446;8.834;2023-12-04T11:42:19;11.35;;;6.45;;
72335;SDS011;73817;48.446;8.834;2023-12-04T11:45:22;18.42;;;7.60;;
72335;SDS011;73817;48.446;8.834;2023-12-04T11:48:23;9.85;;;5.60;;
72335;SDS011;73817;48.446;8.834;2023-12-04T11:57:58;12.98;;;5.90;;
72335;SDS011;73817;48.446;8.834;2023-12-04T12:00:58;13.93;;;7.00;;
72335;SDS011;73817;48.446;8.834;2023-12-04T12:04:00;11.48;;;6.35;;
72335;SDS011;73817;48.446;8.834;2023-12-04T12:07:01;10.35;;;5.07;;
72335;SDS011;73817;48.446;8.834;2023-12-04T12:10:04;11.55;;;5.15;;
72335;SDS011;73817;48.446;8.834;2023-12-04T12:13:05;9.75;;;5.88;;
72335;SDS011;73817;48.446;8.834;2023-12-04T12:16:06;11.93;;;5.78;;
72335;SDS011;73817;48.446;8.834;2023-12-04T12:19:06;16.38;;;8.20;;
72335;SDS011;73817;48.446;8.834;2023-12-04T12:22:07;11.65;;;6.93;;
72335;SDS011;73817;48.446;8.834;2023-12-04T12:25:07;11.25;;;6.63;;
72335;SDS011;73817;48.446;8.834;2023-12-04T12:28:09;10.13;;;6.25;;
72335;SDS011;73817;48.446;8.834;2023-12-04T12:31:10;14.45;;;7.25;;
72335;SDS011;73817;48.446;8.834;2023-12-04T12:34:10;11.00;;;5.45;;
72335;SDS011;73817;48.446;8.834;2023-12-04T12:37:10;12.20;;;6.20;;
72335;SDS011;73817;48.446;8.834;2023-12-04T12:40:11;10.43;;;6.50;;
72335;SDS011;73817;48.446;8.834;2023-12-04T12:43:12;10.93;;;5.75;;
72335;SDS011;73817;48.446;8.834;2023-12-04T12:46:12;10.20;;;5.90;;
72335;SDS011;73817;48.446;8.834;2023-12-04T12:49:14;13.02;;;5.95;;
72335;SDS011;73817;48.446;8.834;2023-12-04T12:52:16;10.30;;;5.53;;
72335;SDS011;73817;48.446;8.834;2023-12-04T12:55:23;11.77;;;6.43;;
72335;SDS011;73817;48.446;8.834;2023-12-04T12:58:24;11.75;;;5.82;;
72335;SDS011;73817;48.446;8.834;2023-12-04T13:01:30;10.52;;;5.85;;
72335;SDS011;73817;48.446;8.834;2023-12-04T13:04:37;11.82;;;5.18;;
72335;SDS011;73817;48.446;8.834;2023-12-04T13:07:38;12.00;;;6.32;;
72335;SDS011;73817;48.446;8.834;2023-12-04T13:10:39;11.57;;;5.97;;
72335;SDS011;73817;48.446;8.834;2023-12-04T13:16:41;7.20;;;4.30;;
72335;SDS011;73817;48.446;8.834;2023-12-04T13:19:41;11.82;;;6.38;;
72335;SDS011;73817;48.446;8.834;2023-12-04T13:22:42;13.13;;;6.63;;
72335;SDS011;73817;48.446;8.834;2023-12-04T13:25:42;11.60;;;6.43;;
72335;SDS011;73817;48.446;8.834;2023-12-04T13:28:43;12.85;;;7.53;;
72335;SDS011;73817;48.446;8.834;2023-12-04T13:31:44;10.75;;;5.88;;
72335;SDS011;73817;48.446;8.834;2023-12-04T13:34:46;11.25;;;7.03;;
72335;SDS011;73817;48.446;8.834;2023-12-04T13:37:46;11.65;;;6.55;;
72335;SDS011;73817;48.446;8.834;2023-12-04T13:40:54;11.85;;;6.15;;
72335;SDS011;73817;48.446;8.834;2023-12-04T13:47:09;14.97;;;6.10;;
72335;SDS011;73817;48.446;8.834;2023-12-04T13:50:09;14.43;;;7.20;;
72335;SDS011;73817;48.446;8.834;2023-12-04T13:53:09;15.40;;;7.53;;
72335;SDS011;73817;48.446;8.834;2023-12-04T13:56:10;10.35;;;6.07;;
72335;SDS011;73817;48.446;8.834;2023-12-04T13:59:23;13.50;;;7.45;;
72335;SDS011;73817;48.446;8.834;2023-12-04T14:02:24;12.02;;;6.82;;
72335;SDS011;73817;48.446;8.834;2023-12-04T14:05:24;15.05;;;6.78;;
72335;SDS011;73817;48.446;8.834;2023-12-04T14:08:25;14.05;;;7.47;;
72335;SDS011;73817;48.446;8.834;2023-12-04T14:11:25;15.95;;;7.95;;
72335;SDS011;73817;48.446;8.834;2023-12-04T14:14:25;11.43;;;6.07;;
72335;SDS011;73817;48.446;8.834;2023-12-04T14:17:26;18.67;;;11.07;;
72335;SDS011;73817;48.446;8.834;2023-12-04T14:20:26;14.02;;;8.32;;
72335;SDS011;73817;48.446;8.834;2023-12-04T14:23:26;12.10;;;6.45;;
72335;SDS011;73817;48.446;8.834;2023-12-04T14:26:27;12.98;;;6.93;;
72335;SDS011;73817;48.446;8.834;2023-12-04T14:29:27;12.90;;;6.47;;
72335;SDS011;73817;48.446;8.834;2023-12-04T14:32:28;12.25;;;6.97;;
72335;SDS011;73817;48.446;8.834;2023-12-04T14:35:28;9.63;;;6.35;;
72335;SDS011;73817;48.446;8.834;2023-12-04T14:38:29;13.02;;;7.00;;
72335;SDS011;73817;48.446;8.834;2023-12-04T14:41:29;14.57;;;8.18;;
72335;SDS011;73817;48.446;8.834;2023-12-04T14:44:30;12.98;;;7.13;;
72335;SDS011;73817;48.446;8.834;2023-12-04T14:47:32;17.38;;;7.75;;
72335;SDS011;73817;48.446;8.834;2023-12-04T14:50:33;14.45;;;7.97;;
72335;SDS011;73817;48.446;8.834;2023-12-04T14:53:37;15.55;;;8.93;;
72335;SDS011;73817;48.446;8.834;2023-12-04T14:57:04;15.25;;;8.20;;
72335;SDS011;73817;48.446;8.834;2023-12-04T15:00:23;14.45;;;7.63;;
72335;SDS011;73817;48.446;8.834;2023-12-04T15:03:42;14.55;;;8.10;;
72335;SDS011;73817;48.446;8.834;2023-12-04T15:06:54;12.60;;;6.80;;
72335;SDS011;73817;48.446;8.834;2023-12-04T15:09:54;19.45;;;9.20;;
72335;SDS011;73817;48.446;8.834;2023-12-04T15:13:13;11.50;;;7.93;;
72335;SDS011;73817;48.446;8.834;2023-12-04T15:16:28;15.50;;;7.95;;
72335;SDS011;73817;48.446;8.834;2023-12-04T15:19:49;16.02;;;7.80;;
72335;SDS011;73817;48.446;8.834;2023-12-04T15:23:12;12.23;;;6.53;;
72335;SDS011;73817;48.446;8.834;2023-12-04T15:26:13;12.23;;;7.43;;
72335;SDS011;73817;48.446;8.834;2023-12-04T15:29:15;13.27;;;7.90;;
72335;SDS011;73817;48.446;8.834;2023-12-04T15:32:19;13.93;;;7.22;;
72335;SDS011;73817;48.446;8.834;2023-12-04T15:35:21;12.30;;;6.60;;
72335;SDS011;73817;48.446;8.834;2023-12-04T15:38:21;11.65;;;6.38;;
72335;SDS011;73817;48.446;8.834;2023-12-04T15:41:21;12.70;;;6.85;;
72335;SDS011;73817;48.446;8.834;2023-12-04T15:44:22;12.65;;;6.57;;
72335;SDS011;73817;48.446;8.834;2023-12-04T15:47:22;14.52;;;7.10;;
72335;SDS011;73817;48.446;8.834;2023-12-04T15:50:24;16.10;;;8.40;;
72335;SDS011;73817;48.446;8.834;2023-12-04T15:53:25;19.92;;;9.13;;
72335;SDS011;73817;48.446;8.834;2023-12-04T15:56:25;17.65;;;9.40;;
72335;SDS011;73817;48.446;8.834;2023-12-04T15:59:26;15.93;;;8.05;;
72335;SDS011;73817;48.446;8.834;2023-12-04T16:02:26;17.13;;;9.90;;
72335;SDS011;73817;48.446;8.834;2023-12-04T16:05:27;15.45;;;7.88;;
72335;SDS011;73817;48.446;8.834;2023-12-04T16:08:27;18.10;;;9.20;;
72335;SDS011;73817;48.446;8.834;2023-12-04T16:11:27;24.75;;;13.50;;
72335;SDS011;73817;48.446;8.834;2023-12-04T16:14:28;14.30;;;9.10;;
72335;SDS011;73817;48.446;8.834;2023-12-04T16:17:28;17.17;;;9.88;;
72335;SDS011;73817;48.446;8.834;2023-12-04T16:20:29;16.13;;;8.70;;
72335;SDS011;73817;48.446;8.834;2023-12-04T16:23:30;18.27;;;9.38;;
72335;SDS011;73817;48.446;8.834;2023-12-04T16:26:30;38.55;;;14.90;;
72335;SDS011;73817;48.446;8.834;2023-12-04T16:29:31;44.88;;;16.50;;
72335;SDS011;73817;48.446;8.834;2023-12-04T16:32:33;35.13;;;14.15;;
72335;SDS011;73817;48.446;8.834;2023-12-04T16:35:34;19.45;;;9.20;;
72335;SDS011;73817;48.446;8.834;2023-12-04T16:38:34;15.77;;;8.32;;
72335;SDS011;73817;48.446;8.834;2023-12-04T16:41:35;12.60;;;6.80;;
72335;SDS011;73817;48.446;8.834;2023-12-04T16:44:35;13.15;;;7.80;;
72335;SDS011;73817;48.446;8.834;2023-12-04T16:47:36;13.68;;;7.75;;
72335;SDS011;73817;48.446;8.834;2023-12-04T16:50:36;15.05;;;8.35;;
72335;SDS011;73817;48.446;8.834;2023-12-04T16:53:37;12.68;;;8.23;;
72335;SDS011;73817;48.446;8.834;2023-12-04T16:56:37;15.40;;;8.75;;
72335;SDS011;73817;48.446;8.834;2023-12-04T16:59:38;12.50;;;7.20;;
72335;SDS011;73817;48.446;8.834;2023-12-04T17:02:40;14.23;;;7.32;;
72335;SDS011;73817;48.446;8.834;2023-12-04T17:05:40;13.48;;;7.88;;
72335;SDS011;73817;48.446;8.834;2023-12-04T17:08:40;11.77;;;6.57;;
72335;SDS011;73817;48.446;8.834;2023-12-04T17:11:41;13.32;;;7.53;;
72335;SDS011;73817;48.446;8.834;2023-12-04T17:14:42;15.90;;;8.70;;
72335;SDS011;73817;48.446;8.834;2023-12-04T17:17:42;15.07;;;8.18;;
72335;SDS011;73817;48.446;8.834;2023-12-04T17:20:43;13.80;;;7.28;;
72335;SDS011;73817;48.446;8.834;2023-12-04T17:23:44;18.58;;;7.70;;
72335;SDS011;73817;48.446;8.834;2023-12-04T17:26:45;15.13;;;8.65;;
72335;SDS011;73817;48.446;8.834;2023-12-04T17:29:46;15.75;;;8.75;;
72335;SDS011;73817;48.446;8.834;2023-12-04T17:32:46;22.17;;;9.75;;
72335;SDS011;73817;48.446;8.834;2023-12-04T17:35:48;20.80;;;10.50;;
72335;SDS011;73817;48.446;8.834;2023-12-04T17:38:48;19.40;;;11.88;;
72335;SDS011;73817;48.446;8.834;2023-12-04T17:41:48;20.00;;;10.52;;
72335;SDS011;73817;48.446;8.834;2023-12-04T17:44:49;15.13;;;7.28;;
72335;SDS011;73817;48.446;8.834;2023-12-04T17:47:49;16.83;;;9.18;;
72335;SDS011;73817;48.446;8.834;2023-12-04T17:50:50;16.27;;;8.57;;
72335;SDS011;73817;48.446;8.834;2023-12-04T17:53:53;18.17;;;9.77;;
72335;SDS011;73817;48.446;8.834;2023-12-04T17:56:54;17.55;;;8.90;;
72335;SDS011;73817;48.446;8.834;2023-12-04T17:59:55;16.48;;;9.25;;
72335;SDS011;73817;48.446;8.834;2023-12-04T18:02:56;14.38;;;8.75;;
72335;SDS011;73817;48.446;8.834;2023-12-04T18:05:56;19.40;;;8.98;;
72335;SDS011;73817;48.446;8.834;2023-12-04T18:08:57;14.80;;;7.65;;
72335;SDS011;73817;48.446;8.834;2023-12-04T18:11:57;16.25;;;9.27;;
72335;SDS011;73817;48.446;8.834;2023-12-04T18:14:58;12.20;;;6.22;;
72335;SDS011;73817;48.446;8.834;2023-12-04T18:17:58;16.75;;;9.88;;
72335;SDS011;73817;48.446;8.834;2023-12-04T18:20:59;13.40;;;6.55;;